sensor_id;sensor_type;location;lat;lon;timestamp;P1;durP1;ratioP1;P2;durP2;ratioP2
15261;SDS011;7733;51.554;13.590;2023-04-01T00:00:57;1.77;;;1.17;;
15261;SDS011;7733;51.554;13.590;2023-04-01T00:03:25;2.90;;;1.23;;
15261;SDS011;7733;51.554;13.590;2023-04-01T00:05:53;1.00;;;0.83;;
15261;SDS011;7733;51.554;13.590;2023-04-01T00:08:21;1.10;;;0.93;;
15261;SDS011;7733;51.554;13.590;2023-04-01T00:10:47;2.50;;;1.33;;
15261;SDS011;7733;51.554;13.590;2023-04-01T00:13:13;1.67;;;1.10;;
15261;SDS011;7733;51.554;13.590;2023-04-01T00:15:39;1.50;;;1.30;;
15261;SDS011;7733;51.554;13.590;2023-04-01T00:18:07;2.23;;;1.27;;
15261;SDS011;7733;51.554;13.590;2023-04-01T00:20:33;1.37;;;1.17;;
15261;SDS011;7733;51.554;13.590;2023-04-01T00:22:59;1.67;;;1.03;;
15261;SDS011;7733;51.554;13.590;2023-04-01T00:25:25;3.07;;;1.20;;
15261;SDS011;7733;51.554;13.590;2023-04-01T00:27:51;2.43;;;1.43;;
15261;SDS011;7733;51.554;13.590;2023-04-01T00:30:17;1.43;;;1.30;;
15261;SDS011;7733;51.554;13.590;2023-04-01T00:32:43;3.90;;;1.50;;
15261;SDS011;7733;51.554;13.590;2023-04-01T00:35:09;1.20;;;1.10;;
15261;SDS011;7733;51.554;13.590;2023-04-01T00:37:35;1.67;;;1.27;;
15261;SDS011;7733;51.554;13.590;2023-04-01T00:40:06;1.10;;;1.00;;
15261;SDS011;7733;51.554;13.590;2023-04-01T00:42:45;2.53;;;1.17;;
15261;SDS011;7733;51.554;13.590;2023-04-01T00:45:28;0.90;;;0.90;;
15261;SDS011;7733;51.554;13.590;2023-04-01T00:48:37;3.97;;;1.33;;
15261;SDS011;7733;51.554;13.590;2023-04-01T00:51:05;2.17;;;1.20;;
15261;SDS011;7733;51.554;13.590;2023-04-01T00:53:37;4.00;;;1.20;;
15261;SDS011;7733;51.554;13.590;2023-04-01T00:56:15;1.53;;;1.10;;
15261;SDS011;7733;51.554;13.590;2023-04-01T00:58:48;1.43;;;0.90;;
15261;SDS011;7733;51.554;13.590;2023-04-01T01:01:35;2.47;;;1.40;;
15261;SDS011;7733;51.554;13.590;2023-04-01T01:04:02;0.90;;;0.90;;
15261;SDS011;7733;51.554;13.590;2023-04-01T01:09:22;1.43;;;0.90;;
15261;SDS011;7733;51.554;13.590;2023-04-01T01:11:54;1.00;;;0.80;;
15261;SDS011;7733;51.554;13.590;2023-04-01T01:17:40;1.90;;;0.80;;
15261;SDS011;7733;51.554;13.590;2023-04-01T01:23:48;0.73;;;0.70;;
15261;SDS011;7733;51.554;13.590;2023-04-01T01:37:35;1.13;;;1.03;;
15261;SDS011;7733;51.554;13.590;2023-04-01T01:40:05;2.20;;;1.00;;
15261;SDS011;7733;51.554;13.590;2023-04-01T01:42:37;1.50;;;0.97;;
15261;SDS011;7733;51.554;13.590;2023-04-01T01:45:09;4.00;;;1.00;;
15261;SDS011;7733;51.554;13.590;2023-04-01T01:47:39;1.90;;;1.37;;
15261;SDS011;7733;51.554;13.590;2023-04-01T01:50:07;2.30;;;1.10;;
15261;SDS011;7733;51.554;13.590;2023-04-01T01:52:34;3.30;;;2.37;;
15261;SDS011;7733;51.554;13.590;2023-04-01T01:55:00;2.73;;;1.20;;
15261;SDS011;7733;51.554;13.590;2023-04-01T01:57:27;1.77;;;1.03;;
15261;SDS011;7733;51.554;13.590;2023-04-01T02:00:00;2.60;;;1.00;;
15261;SDS011;7733;51.554;13.590;2023-04-01T02:02:38;1.37;;;1.03;;
15261;SDS011;7733;51.554;13.590;2023-04-01T02:05:07;6.03;;;1.17;;
15261;SDS011;7733;51.554;13.590;2023-04-01T02:07:36;1.37;;;1.03;;
15261;SDS011;7733;51.554;13.590;2023-04-01T02:10:07;1.93;;;0.90;;
15261;SDS011;7733;51.554;13.590;2023-04-01T02:12:33;2.00;;;1.17;;
15261;SDS011;7733;51.554;13.590;2023-04-01T02:15:05;2.43;;;1.10;;
15261;SDS011;7733;51.554;13.590;2023-04-01T02:17:35;2.40;;;1.17;;
15261;SDS011;7733;51.554;13.590;2023-04-01T02:20:09;2.57;;;1.17;;
15261;SDS011;7733;51.554;13.590;2023-04-01T02:22:43;2.10;;;1.10;;
15261;SDS011;7733;51.554;13.590;2023-04-01T02:25:30;2.27;;;1.40;;
15261;SDS011;7733;51.554;13.590;2023-04-01T02:28:01;9.57;;;1.50;;
15261;SDS011;7733;51.554;13.590;2023-04-01T02:30:31;1.20;;;0.90;;
15261;SDS011;7733;51.554;13.590;2023-04-01T02:33:02;1.70;;;1.07;;
15261;SDS011;7733;51.554;13.590;2023-04-01T02:35:30;2.10;;;0.90;;
15261;SDS011;7733;51.554;13.590;2023-04-01T02:38:00;2.17;;;1.20;;
15261;SDS011;7733;51.554;13.590;2023-04-01T02:40:27;1.37;;;1.00;;
15261;SDS011;7733;51.554;13.590;2023-04-01T02:42:52;1.10;;;0.97;;
15261;SDS011;7733;51.554;13.590;2023-04-01T02:45:18;1.63;;;1.20;;
15261;SDS011;7733;51.554;13.590;2023-04-01T02:47:44;2.67;;;1.27;;
15261;SDS011;7733;51.554;13.590;2023-04-01T02:50:10;1.53;;;1.17;;
15261;SDS011;7733;51.554;13.590;2023-04-01T02:52:36;1.37;;;0.97;;
15261;SDS011;7733;51.554;13.590;2023-04-01T02:55:02;1.33;;;0.93;;
15261;SDS011;7733;51.554;13.590;2023-04-01T02:57:28;4.33;;;1.40;;
15261;SDS011;7733;51.554;13.590;2023-04-01T02:59:54;1.93;;;1.27;;
15261;SDS011;7733;51.554;13.590;2023-04-01T03:02:20;1.63;;;1.00;;
15261;SDS011;7733;51.554;13.590;2023-04-01T03:04:46;2.23;;;1.40;;
15261;SDS011;7733;51.554;13.590;2023-04-01T03:07:11;1.20;;;0.87;;
15261;SDS011;7733;51.554;13.590;2023-04-01T03:09:37;2.30;;;1.20;;
15261;SDS011;7733;51.554;13.590;2023-04-01T03:12:04;1.93;;;0.93;;
15261;SDS011;7733;51.554;13.590;2023-04-01T03:14:31;2.40;;;1.37;;
15261;SDS011;7733;51.554;13.590;2023-04-01T03:16:56;1.60;;;1.00;;
15261;SDS011;7733;51.554;13.590;2023-04-01T03:19:22;3.10;;;1.27;;
15261;SDS011;7733;51.554;13.590;2023-04-01T03:21:48;1.87;;;1.17;;
15261;SDS011;7733;51.554;13.590;2023-04-01T03:24:13;2.20;;;1.10;;
15261;SDS011;7733;51.554;13.590;2023-04-01T03:26:39;1.73;;;1.17;;
15261;SDS011;7733;51.554;13.590;2023-04-01T03:29:05;2.10;;;1.43;;
15261;SDS011;7733;51.554;13.590;2023-04-01T03:31:31;2.13;;;1.40;;
15261;SDS011;7733;51.554;13.590;2023-04-01T03:33:56;1.43;;;1.00;;
15261;SDS011;7733;51.554;13.590;2023-04-01T03:36:22;2.47;;;1.00;;
15261;SDS011;7733;51.554;13.590;2023-04-01T03:38:48;0.90;;;0.90;;
15261;SDS011;7733;51.554;13.590;2023-04-01T03:41:14;1.47;;;1.20;;
15261;SDS011;7733;51.554;13.590;2023-04-01T03:43:42;1.83;;;1.00;;
15261;SDS011;7733;51.554;13.590;2023-04-01T03:46:09;2.73;;;1.10;;
15261;SDS011;7733;51.554;13.590;2023-04-01T03:48:34;1.83;;;1.20;;
15261;SDS011;7733;51.554;13.590;2023-04-01T03:51:00;2.67;;;1.10;;
15261;SDS011;7733;51.554;13.590;2023-04-01T03:53:26;4.00;;;1.43;;
15261;SDS011;7733;51.554;13.590;2023-04-01T03:55:52;5.20;;;1.13;;
15261;SDS011;7733;51.554;13.590;2023-04-01T03:58:19;3.27;;;1.30;;
15261;SDS011;7733;51.554;13.590;2023-04-01T04:00:45;4.33;;;1.13;;
15261;SDS011;7733;51.554;13.590;2023-04-01T04:03:11;3.60;;;1.20;;
15261;SDS011;7733;51.554;13.590;2023-04-01T04:05:37;2.67;;;1.17;;
15261;SDS011;7733;51.554;13.590;2023-04-01T04:08:03;3.43;;;1.00;;
15261;SDS011;7733;51.554;13.590;2023-04-01T04:10:29;1.83;;;1.30;;
15261;SDS011;7733;51.554;13.590;2023-04-01T04:12:55;1.23;;;0.93;;
15261;SDS011;7733;51.554;13.590;2023-04-01T04:15:21;2.83;;;1.00;;
15261;SDS011;7733;51.554;13.590;2023-04-01T04:17:48;2.70;;;1.20;;
15261;SDS011;7733;51.554;13.590;2023-04-01T04:20:13;2.43;;;1.03;;
15261;SDS011;7733;51.554;13.590;2023-04-01T04:22:40;1.10;;;0.90;;
15261;SDS011;7733;51.554;13.590;2023-04-01T04:25:06;1.67;;;1.00;;
15261;SDS011;7733;51.554;13.590;2023-04-01T04:27:33;2.67;;;1.03;;
15261;SDS011;7733;51.554;13.590;2023-04-01T04:29:59;1.77;;;1.17;;
15261;SDS011;7733;51.554;13.590;2023-04-01T04:32:24;2.37;;;1.00;;
15261;SDS011;7733;51.554;13.590;2023-04-01T04:34:50;1.97;;;1.07;;
15261;SDS011;7733;51.554;13.590;2023-04-01T04:37:16;3.03;;;1.30;;
15261;SDS011;7733;51.554;13.590;2023-04-01T04:39:41;2.60;;;1.20;;
15261;SDS011;7733;51.554;13.590;2023-04-01T04:42:07;4.47;;;1.37;;
15261;SDS011;7733;51.554;13.590;2023-04-01T04:44:33;2.33;;;1.20;;
15261;SDS011;7733;51.554;13.590;2023-04-01T04:46:58;1.67;;;1.27;;
15261;SDS011;7733;51.554;13.590;2023-04-01T04:49:24;2.43;;;1.20;;
15261;SDS011;7733;51.554;13.590;2023-04-01T04:51:50;2.13;;;1.37;;
15261;SDS011;7733;51.554;13.590;2023-04-01T04:54:17;1.10;;;0.93;;
15261;SDS011;7733;51.554;13.590;2023-04-01T04:56:42;1.57;;;1.10;;
15261;SDS011;7733;51.554;13.590;2023-04-01T04:59:08;2.60;;;1.30;;
15261;SDS011;7733;51.554;13.590;2023-04-01T05:01:34;1.40;;;1.30;;
15261;SDS011;7733;51.554;13.590;2023-04-01T05:04:00;1.70;;;1.17;;
15261;SDS011;7733;51.554;13.590;2023-04-01T05:06:25;2.20;;;1.00;;
15261;SDS011;7733;51.554;13.590;2023-04-01T05:08:54;3.63;;;1.23;;
15261;SDS011;7733;51.554;13.590;2023-04-01T05:11:21;2.37;;;1.33;;
15261;SDS011;7733;51.554;13.590;2023-04-01T05:13:47;2.17;;;1.07;;
15261;SDS011;7733;51.554;13.590;2023-04-01T05:16:15;2.57;;;1.20;;
15261;SDS011;7733;51.554;13.590;2023-04-01T05:18:44;5.17;;;1.30;;
15261;SDS011;7733;51.554;13.590;2023-04-01T05:21:12;2.87;;;1.10;;
15261;SDS011;7733;51.554;13.590;2023-04-01T05:23:40;2.90;;;1.10;;
15261;SDS011;7733;51.554;13.590;2023-04-01T05:26:13;2.20;;;1.10;;
15261;SDS011;7733;51.554;13.590;2023-04-01T05:28:40;2.87;;;1.70;;
15261;SDS011;7733;51.554;13.590;2023-04-01T05:31:06;2.27;;;1.13;;
15261;SDS011;7733;51.554;13.590;2023-04-01T05:33:32;4.43;;;1.17;;
15261;SDS011;7733;51.554;13.590;2023-04-01T05:36:11;2.23;;;1.20;;
15261;SDS011;7733;51.554;13.590;2023-04-01T05:38:41;2.47;;;1.40;;
15261;SDS011;7733;51.554;13.590;2023-04-01T05:41:08;1.53;;;1.10;;
15261;SDS011;7733;51.554;13.590;2023-04-01T05:43:37;1.97;;;1.30;;
15261;SDS011;7733;51.554;13.590;2023-04-01T05:46:04;3.10;;;1.37;;
15261;SDS011;7733;51.554;13.590;2023-04-01T05:48:30;2.13;;;1.37;;
15261;SDS011;7733;51.554;13.590;2023-04-01T05:50:59;2.60;;;1.57;;
15261;SDS011;7733;51.554;13.590;2023-04-01T05:53:26;5.80;;;1.30;;
15261;SDS011;7733;51.554;13.590;2023-04-01T05:55:51;2.23;;;0.93;;
15261;SDS011;7733;51.554;13.590;2023-04-01T06:00:50;2.33;;;1.30;;
15261;SDS011;7733;51.554;13.590;2023-04-01T06:03:16;3.73;;;1.57;;
15261;SDS011;7733;51.554;13.590;2023-04-01T06:05:42;1.77;;;1.20;;
15261;SDS011;7733;51.554;13.590;2023-04-01T06:08:11;1.93;;;1.10;;
15261;SDS011;7733;51.554;13.590;2023-04-01T06:10:44;2.37;;;1.50;;
15261;SDS011;7733;51.554;13.590;2023-04-01T06:16:14;7.27;;;1.63;;
15261;SDS011;7733;51.554;13.590;2023-04-01T06:18:54;2.40;;;1.10;;
15261;SDS011;7733;51.554;13.590;2023-04-01T06:25:00;2.47;;;1.13;;
15261;SDS011;7733;51.554;13.590;2023-04-01T06:30:58;2.77;;;1.33;;
15261;SDS011;7733;51.554;13.590;2023-04-01T06:48:45;1.70;;;1.10;;
15261;SDS011;7733;51.554;13.590;2023-04-01T06:57:08;2.63;;;1.00;;
15261;SDS011;7733;51.554;13.590;2023-04-01T06:59:57;1.90;;;1.07;;
15261;SDS011;7733;51.554;13.590;2023-04-01T07:05:12;2.73;;;1.10;;
15261;SDS011;7733;51.554;13.590;2023-04-01T07:07:47;2.00;;;1.17;;
15261;SDS011;7733;51.554;13.590;2023-04-01T07:13:27;2.47;;;1.10;;
15261;SDS011;7733;51.554;13.590;2023-04-01T07:16:33;2.47;;;0.80;;
15261;SDS011;7733;51.554;13.590;2023-04-01T07:19:18;1.37;;;1.10;;
15261;SDS011;7733;51.554;13.590;2023-04-01T07:28:05;1.03;;;1.00;;
15261;SDS011;7733;51.554;13.590;2023-04-01T07:31:12;1.10;;;0.83;;
15261;SDS011;7733;51.554;13.590;2023-04-01T07:33:39;2.20;;;0.90;;
15261;SDS011;7733;51.554;13.590;2023-04-01T07:36:48;2.73;;;1.20;;
15261;SDS011;7733;51.554;13.590;2023-04-01T07:59:18;2.87;;;0.90;;
15261;SDS011;7733;51.554;13.590;2023-04-01T08:02:19;1.13;;;1.03;;
15261;SDS011;7733;51.554;13.590;2023-04-01T08:05:19;3.00;;;1.30;;
15261;SDS011;7733;51.554;13.590;2023-04-01T08:10:46;1.97;;;1.10;;
15261;SDS011;7733;51.554;13.590;2023-04-01T08:22:30;1.10;;;0.90;;
15261;SDS011;7733;51.554;13.590;2023-04-01T08:25:06;2.60;;;2.30;;
15261;SDS011;7733;51.554;13.590;2023-04-01T08:27:46;2.40;;;2.20;;
15261;SDS011;7733;51.554;13.590;2023-04-01T08:30:53;1.60;;;1.57;;
15261;SDS011;7733;51.554;13.590;2023-04-01T08:33:30;2.07;;;0.90;;
15261;SDS011;7733;51.554;13.590;2023-04-01T08:38:58;2.53;;;1.30;;
15261;SDS011;7733;51.554;13.590;2023-04-01T08:55:44;2.50;;;1.10;;
15261;SDS011;7733;51.554;13.590;2023-04-01T09:04:32;1.57;;;1.10;;
15261;SDS011;7733;51.554;13.590;2023-04-01T09:07:42;1.73;;;1.00;;
15261;SDS011;7733;51.554;13.590;2023-04-01T09:22:51;1.90;;;1.40;;
15261;SDS011;7733;51.554;13.590;2023-04-01T09:49:04;0.87;;;0.70;;
15261;SDS011;7733;51.554;13.590;2023-04-01T09:51:44;1.70;;;0.90;;
15261;SDS011;7733;51.554;13.590;2023-04-01T09:54:21;1.57;;;1.47;;
15261;SDS011;7733;51.554;13.590;2023-04-01T10:20:59;3.50;;;3.20;;
15261;SDS011;7733;51.554;13.590;2023-04-01T10:36:50;1.63;;;1.53;;
15261;SDS011;7733;51.554;13.590;2023-04-01T11:13:23;2.63;;;0.73;;
15261;SDS011;7733;51.554;13.590;2023-04-01T11:19:08;1.20;;;0.77;;
15261;SDS011;7733;51.554;13.590;2023-04-01T11:28:16;2.23;;;0.80;;
15261;SDS011;7733;51.554;13.590;2023-04-01T11:31:34;1.07;;;0.70;;
15261;SDS011;7733;51.554;13.590;2023-04-01T11:39:58;4.07;;;3.80;;
15261;SDS011;7733;51.554;13.590;2023-04-01T11:45:24;0.60;;;0.60;;
15261;SDS011;7733;51.554;13.590;2023-04-01T11:59:37;1.23;;;0.70;;
15261;SDS011;7733;51.554;13.590;2023-04-01T12:02:52;1.30;;;0.83;;
15261;SDS011;7733;51.554;13.590;2023-04-01T12:11:11;2.03;;;0.80;;
15261;SDS011;7733;51.554;13.590;2023-04-01T12:14:16;1.07;;;0.97;;
15261;SDS011;7733;51.554;13.590;2023-04-01T12:17:29;2.63;;;0.67;;
15261;SDS011;7733;51.554;13.590;2023-04-01T12:25:44;3.27;;;1.40;;
15261;SDS011;7733;51.554;13.590;2023-04-01T12:40:17;2.77;;;1.00;;
15261;SDS011;7733;51.554;13.590;2023-04-01T12:43:02;1.80;;;0.70;;
15261;SDS011;7733;51.554;13.590;2023-04-01T12:45:34;0.80;;;0.80;;
15261;SDS011;7733;51.554;13.590;2023-04-01T12:51:29;1.67;;;0.80;;
15261;SDS011;7733;51.554;13.590;2023-04-01T13:10:05;1.20;;;1.10;;
15261;SDS011;7733;51.554;13.590;2023-04-01T13:18:09;1.30;;;1.13;;
15261;SDS011;7733;51.554;13.590;2023-04-01T13:23:42;1.30;;;1.00;;
15261;SDS011;7733;51.554;13.590;2023-04-01T13:26:34;1.00;;;1.00;;
15261;SDS011;7733;51.554;13.590;2023-04-01T13:29:18;1.80;;;1.10;;
15261;SDS011;7733;51.554;13.590;2023-04-01T13:32:06;0.90;;;0.90;;
15261;SDS011;7733;51.554;13.590;2023-04-01T13:34:55;4.17;;;3.87;;
15261;SDS011;7733;51.554;13.590;2023-04-01T13:37:36;2.20;;;2.00;;
15261;SDS011;7733;51.554;13.590;2023-04-01T13:43:22;1.60;;;1.33;;
15261;SDS011;7733;51.554;13.590;2023-04-01T14:33:54;2.27;;;2.17;;
15261;SDS011;7733;51.554;13.590;2023-04-01T14:54:06;3.10;;;3.00;;
15261;SDS011;7733;51.554;13.590;2023-04-01T14:56:50;5.43;;;5.03;;
15261;SDS011;7733;51.554;13.590;2023-04-01T14:59:59;3.07;;;2.97;;
15261;SDS011;7733;51.554;13.590;2023-04-01T15:02:42;4.07;;;3.63;;
15261;SDS011;7733;51.554;13.590;2023-04-01T15:05:32;4.17;;;3.77;;
15261;SDS011;7733;51.554;13.590;2023-04-01T15:16:54;2.97;;;2.50;;
15261;SDS011;7733;51.554;13.590;2023-04-01T15:26:05;1.33;;;1.33;;
15261;SDS011;7733;51.554;13.590;2023-04-01T15:38:17;1.10;;;1.10;;
15261;SDS011;7733;51.554;13.590;2023-04-01T15:41:09;1.30;;;1.20;;
15261;SDS011;7733;51.554;13.590;2023-04-01T15:43:45;1.77;;;1.30;;
15261;SDS011;7733;51.554;13.590;2023-04-01T16:00:30;22.87;;;20.43;;
15261;SDS011;7733;51.554;13.590;2023-04-01T16:03:30;19.27;;;17.50;;
15261;SDS011;7733;51.554;13.590;2023-04-01T16:06:20;24.80;;;22.50;;
15261;SDS011;7733;51.554;13.590;2023-04-01T16:12:28;12.83;;;11.63;;
15261;SDS011;7733;51.554;13.590;2023-04-01T16:20:18;27.63;;;25.23;;
15261;SDS011;7733;51.554;13.590;2023-04-01T16:23:01;33.87;;;30.30;;
15261;SDS011;7733;51.554;13.590;2023-04-01T16:25:44;14.07;;;12.70;;
15261;SDS011;7733;51.554;13.590;2023-04-01T16:28:28;8.80;;;8.17;;
15261;SDS011;7733;51.554;13.590;2023-04-01T16:31:25;2.97;;;2.83;;
15261;SDS011;7733;51.554;13.590;2023-04-01T16:37:09;7.00;;;6.40;;
15261;SDS011;7733;51.554;13.590;2023-04-01T16:43:05;1.77;;;1.77;;
15261;SDS011;7733;51.554;13.590;2023-04-01T16:45:42;2.17;;;2.17;;
15261;SDS011;7733;51.554;13.590;2023-04-01T16:51:22;2.57;;;2.37;;
15261;SDS011;7733;51.554;13.590;2023-04-01T16:54:06;2.43;;;2.33;;
15261;SDS011;7733;51.554;13.590;2023-04-01T16:56:38;2.33;;;2.33;;
15261;SDS011;7733;51.554;13.590;2023-04-01T16:59:19;2.30;;;2.20;;
15261;SDS011;7733;51.554;13.590;2023-04-01T17:12:56;1.80;;;1.80;;
15261;SDS011;7733;51.554;13.590;2023-04-01T17:18:10;2.17;;;2.07;;
15261;SDS011;7733;51.554;13.590;2023-04-01T17:32:57;2.30;;;2.20;;
15261;SDS011;7733;51.554;13.590;2023-04-01T17:35:57;2.03;;;2.03;;
15261;SDS011;7733;51.554;13.590;2023-04-01T17:44:37;2.80;;;2.70;;
15261;SDS011;7733;51.554;13.590;2023-04-01T17:50:23;2.70;;;2.60;;
15261;SDS011;7733;51.554;13.590;2023-04-01T17:59:06;2.53;;;2.43;;
15261;SDS011;7733;51.554;13.590;2023-04-01T18:04:42;3.83;;;3.63;;
15261;SDS011;7733;51.554;13.590;2023-04-01T18:25:32;3.60;;;3.50;;
15261;SDS011;7733;51.554;13.590;2023-04-01T18:36:40;4.30;;;4.10;;
15261;SDS011;7733;51.554;13.590;2023-04-01T18:39:32;3.80;;;3.60;;
15261;SDS011;7733;51.554;13.590;2023-04-01T18:48:10;3.53;;;3.43;;
15261;SDS011;7733;51.554;13.590;2023-04-01T18:51:01;4.30;;;4.10;;
15261;SDS011;7733;51.554;13.590;2023-04-01T18:53:45;3.67;;;3.57;;
15261;SDS011;7733;51.554;13.590;2023-04-01T18:56:37;3.63;;;3.43;;
15261;SDS011;7733;51.554;13.590;2023-04-01T19:04:57;16.03;;;14.63;;
15261;SDS011;7733;51.554;13.590;2023-04-01T19:13:14;16.33;;;13.67;;
15261;SDS011;7733;51.554;13.590;2023-04-01T19:16:17;47.43;;;43.57;;
15261;SDS011;7733;51.554;13.590;2023-04-01T19:21:56;23.47;;;21.20;;
15261;SDS011;7733;51.554;13.590;2023-04-01T19:24:35;9.10;;;8.37;;
15261;SDS011;7733;51.554;13.590;2023-04-01T19:30:17;4.57;;;4.33;;
15261;SDS011;7733;51.554;13.590;2023-04-01T19:33:23;4.20;;;4.00;;
15261;SDS011;7733;51.554;13.590;2023-04-01T19:36:30;4.63;;;4.43;;
15261;SDS011;7733;51.554;13.590;2023-04-01T19:54:16;3.23;;;3.13;;
15261;SDS011;7733;51.554;13.590;2023-04-01T20:00:06;3.00;;;2.90;;
15261;SDS011;7733;51.554;13.590;2023-04-01T20:08:39;2.53;;;2.43;;
15261;SDS011;7733;51.554;13.590;2023-04-01T20:11:18;2.70;;;2.60;;
15261;SDS011;7733;51.554;13.590;2023-04-01T20:28:12;2.13;;;2.03;;
15261;SDS011;7733;51.554;13.590;2023-04-01T20:33:41;2.30;;;2.20;;
15261;SDS011;7733;51.554;13.590;2023-04-01T20:53:29;2.87;;;2.77;;
15261;SDS011;7733;51.554;13.590;2023-04-01T21:07:48;3.23;;;3.13;;
15261;SDS011;7733;51.554;13.590;2023-04-01T21:10:37;3.03;;;2.93;;
15261;SDS011;7733;51.554;13.590;2023-04-01T21:16:01;3.10;;;3.00;;
15261;SDS011;7733;51.554;13.590;2023-04-01T21:22:16;3.03;;;2.93;;
15261;SDS011;7733;51.554;13.590;2023-04-01T21:30:47;3.30;;;3.00;;
15261;SDS011;7733;51.554;13.590;2023-04-01T21:37:15;3.10;;;2.90;;
15261;SDS011;7733;51.554;13.590;2023-04-01T21:45:55;3.73;;;3.40;;
15261;SDS011;7733;51.554;13.590;2023-04-01T21:54:35;3.97;;;3.87;;
15261;SDS011;7733;51.554;13.590;2023-04-01T22:00:47;3.33;;;3.23;;
15261;SDS011;7733;51.554;13.590;2023-04-01T22:17:32;3.20;;;3.10;;
15261;SDS011;7733;51.554;13.590;2023-04-01T22:23:32;3.17;;;3.03;;
15261;SDS011;7733;51.554;13.590;2023-04-01T22:26:56;3.00;;;2.90;;
15261;SDS011;7733;51.554;13.590;2023-04-01T22:29:24;3.23;;;3.13;;
15261;SDS011;7733;51.554;13.590;2023-04-01T22:32:17;3.10;;;3.00;;
15261;SDS011;7733;51.554;13.590;2023-04-01T22:43:54;3.07;;;2.97;;
15261;SDS011;7733;51.554;13.590;2023-04-01T22:55:10;2.97;;;2.83;;
15261;SDS011;7733;51.554;13.590;2023-04-01T22:57:51;3.07;;;2.97;;
15261;SDS011;7733;51.554;13.590;2023-04-01T23:00:22;3.13;;;2.93;;
15261;SDS011;7733;51.554;13.590;2023-04-01T23:03:11;2.43;;;2.33;;
15261;SDS011;7733;51.554;13.590;2023-04-01T23:05:49;2.40;;;2.30;;
15261;SDS011;7733;51.554;13.590;2023-04-01T23:11:15;2.67;;;2.57;;
15261;SDS011;7733;51.554;13.590;2023-04-01T23:14:07;2.80;;;2.70;;
15261;SDS011;7733;51.554;13.590;2023-04-01T23:16:51;2.47;;;2.37;;
15261;SDS011;7733;51.554;13.590;2023-04-01T23:19:33;2.90;;;2.80;;
15261;SDS011;7733;51.554;13.590;2023-04-01T23:25:42;3.00;;;2.80;;
15261;SDS011;7733;51.554;13.590;2023-04-01T23:36:53;2.80;;;2.70;;
15261;SDS011;7733;51.554;13.590;2023-04-01T23:39:40;2.73;;;2.60;;
15261;SDS011;7733;51.554;13.590;2023-04-01T23:45:18;2.67;;;2.57;;
15261;SDS011;7733;51.554;13.590;2023-04-01T23:47:45;2.60;;;2.50;;
15261;SDS011;7733;51.554;13.590;2023-04-01T23:50:16;2.70;;;2.50;;
15261;SDS011;7733;51.554;13.590;2023-04-01T23:52:48;2.70;;;2.50;;
15261;SDS011;7733;51.554;13.590;2023-04-01T23:55:36;2.30;;;2.20;;
15261;SDS011;7733;51.554;13.590;2023-04-01T23:58:21;2.40;;;2.30;;
